Time;durP1;ratioP1;P1;durP2;ratioP2;P2;SDS_P1;SDS_P2;PMS_P1;PMS_P2;Temp;Humidity;BMP_temperature;BMP_pressure;BME280_temperature;BME280_humidity;BME280_pressure;Samples;Min_cycle;Max_cycle;Signal;HPM_P1;HPM_P2
2023/04/13 00:01:28;;;;;;;6.10;3.90;;;6.60;99.90;;;;;;4972298;28;20042;-67
2023/04/13 00:03:54;;;;;;;8.60;4.18;;;6.60;99.90;;;;;;4944493;28;20075;-67
2023/04/13 00:06:21;;;;;;;7.45;4.40;;;6.70;99.90;;;;;;4965344;28;20565;-67
2023/04/13 00:08:47;;;;;;;6.22;3.72;;;6.70;99.90;;;;;;4938018;29;20043;-67
2023/04/13 00:11:12;;;;;;;7.00;4.20;;;6.80;99.90;;;;;;4951234;28;20042;-67
2023/04/13 00:13:41;;;;;;;6.28;4.22;;;6.80;99.90;;;;;;4961042;28;20116;-66
2023/04/13 00:16:12;;;;;;;5.35;3.50;;;6.80;99.90;;;;;;4951256;29;20142;-67
2023/04/13 00:18:38;;;;;;;7.53;3.85;;;6.90;99.90;;;;;;4935709;29;20149;-67
2023/04/13 00:21:04;;;;;;;6.25;3.30;;;6.90;99.90;;;;;;4943189;28;20051;-67
2023/04/13 00:23:30;;;;;;;5.68;3.60;;;7.00;99.90;;;;;;4947885;29;20122;-67
2023/04/13 00:25:57;;;;;;;5.30;3.28;;;7.00;99.90;;;;;;4971734;28;20043;-67
2023/04/13 00:28:23;;;;;;;6.57;3.70;;;7.10;99.90;;;;;;4946690;28;20094;-67
2023/04/13 00:30:48;;;;;;;5.57;3.33;;;7.10;99.90;;;;;;4938761;28;20047;-67
2023/04/13 00:33:14;;;;;;;7.65;3.88;;;7.10;99.90;;;;;;4964102;28;20085;-67
2023/04/13 00:35:40;;;;;;;7.18;3.80;;;7.10;99.90;;;;;;4971737;28;20047;-66
2023/04/13 00:38:06;;;;;;;5.82;3.47;;;7.10;99.90;;;;;;4950117;28;20039;-67
2023/04/13 00:40:31;;;;;;;4.53;2.88;;;7.00;99.90;;;;;;4951888;29;20043;-67
2023/04/13 00:42:59;;;;;;;5.90;3.35;;;7.00;99.90;;;;;;4971827;28;20637;-67
2023/04/13 00:45:25;;;;;;;5.22;3.13;;;6.90;99.90;;;;;;4972336;28;20039;-67
2023/04/13 00:47:52;;;;;;;4.38;2.80;;;6.90;99.90;;;;;;4958740;28;20497;-67
2023/04/13 00:50:19;;;;;;;5.45;3.05;;;6.90;99.90;;;;;;4945973;29;20042;-67
2023/04/13 00:52:47;;;;;;;5.00;3.15;;;6.90;99.90;;;;;;4938522;28;20035;-67
2023/04/13 00:55:13;;;;;;;5.38;2.72;;;6.80;99.90;;;;;;4968711;28;20035;-67
2023/04/13 00:57:39;;;;;;;6.63;2.47;;;6.80;99.90;;;;;;4946124;29;20047;-67
2023/04/13 01:00:08;;;;;;;6.18;2.83;;;6.80;99.90;;;;;;4936125;29;20175;-66
2023/04/13 01:02:34;;;;;;;4.00;2.58;;;6.80;99.90;;;;;;4953530;28;20053;-66
2023/04/13 01:05:01;;;;;;;3.88;2.45;;;6.80;99.90;;;;;;4958442;28;20424;-67
2023/04/13 01:07:30;;;;;;;4.50;2.47;;;6.70;99.90;;;;;;4947663;29;20043;-66
2023/04/13 01:10:37;;;;;;;5.47;2.50;;;6.70;99.90;;;;;;4953679;28;20447;-67
2023/04/13 01:13:09;;;;;;;4.43;2.33;;;6.70;99.90;;;;;;4850573;29;20049;-67
2023/04/13 01:15:38;;;;;;;5.28;2.28;;;6.70;99.90;;;;;;4942953;28;20057;-67
2023/04/13 01:18:07;;;;;;;4.97;2.20;;;6.70;99.90;;;;;;4968294;28;20035;-67
2023/04/13 01:20:37;;;;;;;5.43;2.28;;;6.70;99.90;;;;;;4971336;28;20043;-67
2023/04/13 01:23:08;;;;;;;5.47;2.40;;;6.60;99.90;;;;;;4950220;28;20043;-67
2023/04/13 01:25:39;;;;;;;7.55;2.08;;;6.70;99.90;;;;;;4970222;28;20050;-67
2023/04/13 01:28:14;;;;;;;5.03;2.20;;;6.60;99.90;;;;;;4970815;28;20041;-67
2023/04/13 01:30:41;;;;;;;4.68;2.30;;;6.70;99.90;;;;;;4967260;28;20057;-67
2023/04/13 01:33:08;;;;;;;3.13;1.90;;;6.70;99.90;;;;;;4949454;28;20039;-67
2023/04/13 01:35:35;;;;;;;3.92;1.90;;;6.60;99.90;;;;;;4952671;28;20118;-67
2023/04/13 01:38:02;;;;;;;5.07;2.03;;;6.70;99.90;;;;;;4938567;29;20050;-67
2023/04/13 01:40:29;;;;;;;6.72;2.13;;;6.70;99.90;;;;;;4943204;28;20045;-67
2023/04/13 01:42:56;;;;;;;6.00;2.22;;;6.70;99.90;;;;;;4968257;28;20478;-67
2023/04/13 01:45:26;;;;;;;8.50;3.25;;;6.70;99.90;;;;;;4969591;28;20087;-67
2023/04/13 01:48:12;;;;;;;5.00;2.05;;;6.70;99.90;;;;;;4969727;28;20049;-67
2023/04/13 01:50:40;;;;;;;5.35;1.88;;;6.70;99.90;;;;;;4960561;28;20043;-67
2023/04/13 01:53:14;;;;;;;3.13;1.80;;;6.70;99.90;;;;;;4966863;28;20081;-67
2023/04/13 01:55:40;;;;;;;2.30;1.45;;;6.70;99.90;;;;;;4957980;28;20051;-67
2023/04/13 01:58:09;;;;;;;4.10;1.80;;;6.70;99.90;;;;;;4965038;28;20039;-67
2023/04/13 02:00:36;;;;;;;3.50;1.55;;;6.70;99.90;;;;;;4952451;29;20043;-67
2023/04/13 02:03:07;;;;;;;4.05;1.88;;;6.80;99.90;;;;;;4938495;29;20042;-67
2023/04/13 02:05:36;;;;;;;2.20;1.60;;;6.70;99.90;;;;;;4935272;28;20043;-66
2023/04/13 02:08:04;;;;;;;5.22;2.10;;;6.70;99.90;;;;;;4951385;28;20039;-67
2023/04/13 02:10:31;;;;;;;3.47;1.83;;;6.70;99.90;;;;;;4950482;29;20067;-66
2023/04/13 02:12:57;;;;;;;3.75;1.88;;;6.70;99.90;;;;;;4938371;29;20407;-67
2023/04/13 02:15:23;;;;;;;4.82;2.00;;;6.70;99.90;;;;;;4955623;29;20496;-66
2023/04/13 02:17:49;;;;;;;4.68;1.90;;;6.70;99.90;;;;;;4944426;28;20524;-66
2023/04/13 02:20:15;;;;;;;3.42;1.90;;;6.70;99.90;;;;;;4966316;28;20031;-67
2023/04/13 02:22:42;;;;;;;6.28;1.95;;;6.70;99.90;;;;;;4970730;28;20039;-66
2023/04/13 02:25:11;;;;;;;2.95;2.08;;;6.70;99.90;;;;;;4966344;28;20038;-67
2023/04/13 02:27:38;;;;;;;6.32;1.92;;;6.70;99.90;;;;;;4965632;28;20043;-66
2023/04/13 02:30:05;;;;;;;2.90;1.73;;;6.70;99.90;;;;;;4957234;28;20045;-67
2023/04/13 02:32:31;;;;;;;4.32;1.95;;;6.70;99.90;;;;;;4958604;28;20034;-67
2023/04/13 02:34:58;;;;;;;6.28;1.92;;;6.70;99.90;;;;;;4965416;28;20075;-67
2023/04/13 02:37:24;;;;;;;2.92;2.00;;;6.70;99.90;;;;;;4955453;28;20046;-67
2023/04/13 02:39:50;;;;;;;2.47;1.67;;;6.70;99.90;;;;;;4954139;28;20545;-67
2023/04/13 02:42:16;;;;;;;4.30;2.30;;;6.70;99.90;;;;;;4961203;28;20070;-67
2023/04/13 02:44:42;;;;;;;4.45;1.92;;;6.60;99.90;;;;;;4950675;29;20126;-67
2023/04/13 02:47:08;;;;;;;3.95;2.28;;;6.70;99.90;;;;;;4954913;28;20035;-67
2023/04/13 02:49:34;;;;;;;4.95;1.95;;;6.70;99.90;;;;;;4950805;28;20043;-67
2023/04/13 02:52:00;;;;;;;5.10;2.45;;;6.70;99.90;;;;;;4969827;28;20035;-67
2023/04/13 02:54:25;;;;;;;6.45;1.95;;;6.70;99.90;;;;;;4942319;29;20039;-67
2023/04/13 02:56:51;;;;;;;4.75;2.20;;;6.70;99.90;;;;;;4954107;28;20053;-67
2023/04/13 02:59:17;;;;;;;3.25;2.08;;;6.70;99.90;;;;;;4952396;28;20122;-67
2023/04/13 03:01:44;;;;;;;3.15;2.00;;;6.70;99.90;;;;;;4969909;28;20039;-67
2023/04/13 03:04:10;;;;;;;4.95;2.20;;;6.70;99.90;;;;;;4966604;28;20039;-67
2023/04/13 03:06:36;;;;;;;3.97;2.05;;;6.70;99.90;;;;;;4967176;28;20370;-67
2023/04/13 03:09:02;;;;;;;3.58;2.13;;;6.70;99.90;;;;;;4972394;28;20060;-67
2023/04/13 03:11:27;;;;;;;4.35;2.28;;;6.70;99.90;;;;;;4964978;28;20041;-67
2023/04/13 03:13:53;;;;;;;4.93;2.20;;;6.70;99.90;;;;;;4963124;28;20062;-67
2023/04/13 03:16:19;;;;;;;3.92;2.00;;;6.70;99.90;;;;;;4965764;28;20046;-67
2023/04/13 03:18:45;;;;;;;3.92;2.58;;;6.70;99.90;;;;;;4971082;28;20046;-67
2023/04/13 03:21:14;;;;;;;5.57;2.20;;;6.70;99.90;;;;;;4966017;28;20097;-67
2023/04/13 03:23:40;;;;;;;4.28;2.30;;;6.70;99.90;;;;;;4966846;28;20449;-67
2023/04/13 03:26:06;;;;;;;4.53;2.38;;;6.70;99.90;;;;;;4943873;29;20047;-67
2023/04/13 03:28:31;;;;;;;8.05;2.00;;;6.70;99.90;;;;;;4936703;29;20039;-67
2023/04/13 03:30:57;;;;;;;6.88;2.50;;;6.70;99.90;;;;;;4940844;28;20481;-67
2023/04/13 03:33:22;;;;;;;5.03;2.60;;;6.70;99.90;;;;;;4962458;28;20507;-67
2023/04/13 03:35:48;;;;;;;7.25;2.60;;;6.70;99.90;;;;;;4938219;29;20533;-67
2023/04/13 03:38:14;;;;;;;4.85;2.30;;;6.70;99.90;;;;;;4953703;29;20569;-67
2023/04/13 03:40:39;;;;;;;4.53;2.40;;;6.70;99.90;;;;;;4961481;28;20177;-67
2023/04/13 03:43:05;;;;;;;6.90;2.70;;;6.70;99.90;;;;;;4969188;28;20077;-67
2023/04/13 03:45:30;;;;;;;4.20;2.40;;;6.70;99.90;;;;;;4945575;28;20079;-67
2023/04/13 03:47:56;;;;;;;5.38;2.80;;;6.70;99.90;;;;;;4934615;28;20110;-67
2023/04/13 03:50:21;;;;;;;7.40;3.00;;;6.80;99.90;;;;;;4964452;28;20041;-67
2023/04/13 03:52:47;;;;;;;4.47;2.97;;;6.80;99.90;;;;;;4955709;28;20050;-67
2023/04/13 03:55:13;;;;;;;6.03;3.05;;;6.80;99.90;;;;;;4953188;28;20035;-67
2023/04/13 03:57:38;;;;;;;5.00;3.05;;;6.80;99.90;;;;;;4948769;28;20390;-67
2023/04/13 04:00:09;;;;;;;7.30;3.20;;;6.80;99.90;;;;;;4965312;28;20042;-67
2023/04/13 04:02:36;;;;;;;6.13;3.30;;;6.80;99.90;;;;;;4951642;28;20057;-67
2023/04/13 04:05:02;;;;;;;5.18;3.08;;;6.80;99.90;;;;;;4965653;28;20558;-67
2023/04/13 04:09:53;;;;;;;5.88;3.40;;;6.90;99.90;;;;;;5012903;23;20096;-67
2023/04/13 04:12:19;;;;;;;7.10;2.75;;;6.90;99.90;;;;;;5004186;28;20076;-67
2023/04/13 04:14:44;;;;;;;6.35;3.20;;;6.90;99.90;;;;;;4988765;28;20070;-67
2023/04/13 04:17:10;;;;;;;4.72;3.20;;;6.90;99.90;;;;;;4991955;28;20443;-67
2023/04/13 04:19:36;;;;;;;6.18;3.22;;;6.90;99.90;;;;;;4982012;28;20522;-67
2023/04/13 04:22:04;;;;;;;5.72;3.05;;;6.90;99.90;;;;;;4982060;28;20400;-67
2023/04/13 04:24:30;;;;;;;5.40;3.50;;;6.90;99.90;;;;;;4983682;28;20054;-67
2023/04/13 04:26:57;;;;;;;4.78;2.70;;;6.90;99.90;;;;;;4977299;28;20440;-67
2023/04/13 04:29:35;;;;;;;4.97;2.78;;;6.90;99.90;;;;;;4972293;28;20062;-67
2023/04/13 04:32:02;;;;;;;6.45;3.03;;;6.90;99.90;;;;;;4982904;28;20125;-67
2023/04/13 04:34:27;;;;;;;5.57;2.90;;;6.90;99.90;;;;;;4987207;28;20030;-67
2023/04/13 04:36:57;;;;;;;5.80;3.20;;;6.80;99.90;;;;;;4952291;28;20058;-67
2023/04/13 04:39:22;;;;;;;4.35;3.03;;;6.80;99.90;;;;;;4969418;28;20038;-67
2023/04/13 04:42:02;;;;;;;5.22;3.13;;;6.80;99.90;;;;;;4981680;28;20053;-67
2023/04/13 04:44:31;;;;;;;4.93;3.10;;;6.70;99.90;;;;;;4981697;28;20113;-67
2023/04/13 04:46:58;;;;;;;5.75;3.00;;;6.60;99.90;;;;;;4961631;28;20039;-67
2023/04/13 04:49:26;;;;;;;4.80;2.60;;;6.60;99.90;;;;;;4983912;28;20038;-67
2023/04/13 04:51:53;;;;;;;6.07;3.17;;;6.50;99.90;;;;;;4985113;28;20420;-67
2023/04/13 04:54:19;;;;;;;6.25;3.20;;;6.40;99.90;;;;;;4978252;28;20046;-67
2023/04/13 04:56:46;;;;;;;5.05;2.90;;;6.30;99.90;;;;;;4978750;28;20039;-67
2023/04/13 04:59:12;;;;;;;4.68;2.65;;;6.20;99.90;;;;;;4965366;28;20528;-67
2023/04/13 05:01:38;;;;;;;5.50;2.90;;;6.20;99.90;;;;;;4984635;28;20122;-67
2023/04/13 05:04:05;;;;;;;5.75;3.20;;;6.20;99.90;;;;;;4963221;28;20042;-67
2023/04/13 05:06:32;;;;;;;4.63;2.70;;;6.20;99.90;;;;;;4977537;28;20060;-67
2023/04/13 05:09:02;;;;;;;6.47;3.13;;;6.10;99.90;;;;;;4981857;28;20042;-67
2023/04/13 05:11:28;;;;;;;7.82;3.40;;;6.10;99.90;;;;;;4982402;28;20034;-67
2023/04/13 05:13:55;;;;;;;6.18;3.42;;;6.00;99.90;;;;;;4978523;28;20493;-67
2023/04/13 05:16:21;;;;;;;6.55;4.00;;;6.10;99.90;;;;;;4981564;28;20042;-67
2023/04/13 05:18:47;;;;;;;9.52;3.95;;;6.20;99.90;;;;;;4981834;28;21152;-67
2023/04/13 05:21:14;;;;;;;6.25;3.97;;;6.20;99.90;;;;;;4980355;28;20035;-67
2023/04/13 05:23:41;;;;;;;6.88;3.90;;;6.20;99.90;;;;;;4959749;28;20066;-67
2023/04/13 05:26:09;;;;;;;8.15;4.75;;;6.20;99.90;;;;;;4981589;28;20043;-67
2023/04/13 05:28:35;;;;;;;7.25;5.03;;;6.30;99.90;;;;;;4982422;28;20039;-67
2023/04/13 05:31:02;;;;;;;8.73;5.00;;;6.30;99.90;;;;;;4959567;28;20089;-67
2023/04/13 05:33:28;;;;;;;10.35;4.95;;;6.30;99.90;;;;;;4982582;28;20113;-67
2023/04/13 05:35:54;;;;;;;9.45;4.47;;;6.40;99.90;;;;;;4980980;28;20070;-67
2023/04/13 05:38:20;;;;;;;8.43;4.70;;;6.50;99.90;;;;;;4982841;28;20074;-67
2023/04/13 05:40:45;;;;;;;9.65;5.75;;;6.50;99.90;;;;;;4978160;28;20066;-67
2023/04/13 05:43:12;;;;;;;10.18;5.22;;;6.60;99.90;;;;;;4963898;28;20042;-67
2023/04/13 05:45:37;;;;;;;12.38;5.80;;;6.60;99.90;;;;;;4989787;28;20042;-67
2023/04/13 05:48:03;;;;;;;13.63;5.38;;;6.70;99.90;;;;;;4986186;28;20108;-67
2023/04/13 05:50:29;;;;;;;14.70;5.75;;;6.70;99.90;;;;;;4994809;28;20030;-67
2023/04/13 05:52:56;;;;;;;10.23;5.78;;;6.90;99.90;;;;;;4984245;28;20563;-67
2023/04/13 05:55:22;;;;;;;8.30;5.28;;;7.00;99.90;;;;;;4965365;28;20039;-67
2023/04/13 05:57:48;;;;;;;9.43;4.68;;;7.10;99.90;;;;;;4984893;28;20042;-67
2023/04/13 06:00:17;;;;;;;10.63;5.60;;;7.10;99.90;;;;;;4940199;28;20105;-67
2023/04/13 06:02:43;;;;;;;11.30;5.25;;;7.10;99.90;;;;;;4976338;28;20114;-67
2023/04/13 06:05:13;;;;;;;9.63;5.22;;;7.10;99.90;;;;;;4978210;28;20042;-67
2023/04/13 06:07:39;;;;;;;11.05;4.57;;;7.10;99.90;;;;;;4966633;28;20046;-68
2023/04/13 06:10:05;;;;;;;8.88;4.95;;;7.10;99.90;;;;;;4982040;28;20049;-67
2023/04/13 06:12:32;;;;;;;10.25;5.10;;;7.20;99.90;;;;;;4961456;28;20516;-67
2023/04/13 06:14:57;;;;;;;10.20;4.88;;;7.10;99.90;;;;;;4967677;28;20043;-67
2023/04/13 06:17:23;;;;;;;10.07;4.72;;;7.20;99.90;;;;;;4984267;28;20420;-67
2023/04/13 06:19:49;;;;;;;11.20;5.25;;;7.20;99.90;;;;;;4983145;28;20526;-67
2023/04/13 06:22:14;;;;;;;10.38;4.75;;;7.20;99.90;;;;;;4962277;28;20378;-66
2023/04/13 06:24:41;;;;;;;7.90;4.20;;;7.20;99.90;;;;;;4983486;28;20050;-67
2023/04/13 06:27:07;;;;;;;9.75;4.75;;;7.30;99.90;;;;;;4985473;28;20043;-67
2023/04/13 06:29:32;;;;;;;7.97;4.90;;;7.30;99.90;;;;;;4971103;28;20149;-67
2023/04/13 06:31:58;;;;;;;9.27;4.28;;;7.40;99.90;;;;;;4967195;28;20050;-67
2023/04/13 06:34:24;;;;;;;10.23;4.93;;;7.50;99.90;;;;;;4982276;28;20093;-67
2023/04/13 06:36:49;;;;;;;9.15;4.85;;;7.60;99.90;;;;;;4991245;28;20042;-67
2023/04/13 06:39:15;;;;;;;10.10;4.95;;;7.60;99.90;;;;;;4986897;28;20046;-67
2023/04/13 06:41:40;;;;;;;10.27;4.53;;;7.70;99.90;;;;;;4984893;28;20043;-67
2023/04/13 06:44:06;;;;;;;9.52;4.80;;;7.80;99.90;;;;;;4975401;28;20046;-67
2023/04/13 06:46:31;;;;;;;11.88;4.55;;;7.90;99.90;;;;;;4985234;28;20042;-67
2023/04/13 06:48:57;;;;;;;8.75;4.68;;;8.00;99.90;;;;;;4975829;28;20478;-67
2023/04/13 06:51:22;;;;;;;9.57;4.50;;;8.10;99.90;;;;;;4984494;28;20055;-67
2023/04/13 06:53:50;;;;;;;8.30;4.65;;;8.10;99.90;;;;;;4966142;28;20481;-67
2023/04/13 06:56:15;;;;;;;10.25;5.28;;;8.20;99.90;;;;;;4966180;28;20574;-67
2023/04/13 06:58:41;;;;;;;10.38;5.40;;;8.20;99.90;;;;;;4979856;28;20058;-68
2023/04/13 07:01:07;;;;;;;8.48;4.68;;;8.20;99.90;;;;;;4968857;28;20046;-67
2023/04/13 07:03:32;;;;;;;9.95;4.75;;;8.20;99.90;;;;;;4983833;28;20034;-67
2023/04/13 07:05:58;;;;;;;10.05;4.28;;;8.30;99.90;;;;;;4977465;28;22040;-67
2023/04/13 07:08:23;;;;;;;9.98;4.78;;;8.30;99.90;;;;;;4976030;28;20027;-67
2023/04/13 07:10:53;;;;;;;7.35;4.00;;;8.30;99.90;;;;;;4956254;28;20058;-67
2023/04/13 07:13:19;;;;;;;7.38;4.70;;;8.30;99.90;;;;;;4974871;28;20097;-67
2023/04/13 07:15:45;;;;;;;6.20;3.92;;;8.30;99.90;;;;;;4982267;28;20670;-67
2023/04/13 07:18:10;;;;;;;5.85;4.25;;;8.20;99.90;;;;;;4960753;28;20088;-67
2023/04/13 07:20:37;;;;;;;10.35;4.45;;;8.20;99.90;;;;;;4967514;28;20492;-67
2023/04/13 07:23:02;;;;;;;9.18;4.82;;;8.20;99.90;;;;;;4981539;28;20031;-67
2023/04/13 07:25:28;;;;;;;9.35;4.68;;;8.30;99.90;;;;;;4974098;28;20045;-67
2023/04/13 07:27:54;;;;;;;6.18;3.85;;;8.40;99.90;;;;;;4983536;28;20050;-66
2023/04/13 07:30:20;;;;;;;7.65;3.95;;;8.40;99.90;;;;;;4993063;28;20038;-67
2023/04/13 07:32:45;;;;;;;4.78;3.17;;;8.50;99.90;;;;;;4983979;28;20038;-67
2023/04/13 07:35:11;;;;;;;8.02;3.53;;;8.50;99.90;;;;;;4979652;28;20504;-67
2023/04/13 07:37:36;;;;;;;7.85;3.92;;;8.50;99.90;;;;;;4966555;28;20054;-66
2023/04/13 07:40:03;;;;;;;6.57;3.45;;;8.50;99.90;;;;;;4983046;28;20034;-66
2023/04/13 07:42:28;;;;;;;6.80;3.60;;;8.60;99.90;;;;;;4986287;28;20500;-67
2023/04/13 07:44:57;;;;;;;8.20;3.90;;;8.60;99.90;;;;;;4984126;28;20548;-67
2023/04/13 07:47:22;;;;;;;4.40;3.08;;;8.70;99.90;;;;;;4982875;28;20125;-67
2023/04/13 07:49:48;;;;;;;5.72;3.25;;;8.60;99.90;;;;;;4967893;28;20458;-67
2023/04/13 07:52:14;;;;;;;6.70;3.10;;;8.60;99.90;;;;;;4975302;28;20030;-66
2023/04/13 07:54:39;;;;;;;6.18;3.22;;;8.60;99.90;;;;;;4979921;28;20038;-66
2023/04/13 07:57:05;;;;;;;7.75;3.17;;;8.60;99.90;;;;;;4984246;28;20081;-66
2023/04/13 07:59:31;;;;;;;6.07;3.13;;;8.70;99.90;;;;;;4985531;28;20038;-66
2023/04/13 08:01:56;;;;;;;5.88;3.55;;;8.60;99.90;;;;;;4963812;28;20050;-66
2023/04/13 08:04:22;;;;;;;6.13;3.45;;;8.70;99.90;;;;;;4987188;28;20034;-67
2023/04/13 08:06:48;;;;;;;6.32;3.08;;;8.80;99.90;;;;;;4969596;28;20497;-66
2023/04/13 08:09:14;;;;;;;8.02;3.67;;;8.80;99.90;;;;;;4980698;28;20129;-66
2023/04/13 08:11:41;;;;;;;6.45;3.40;;;8.90;99.90;;;;;;4982509;28;20453;-66
2023/04/13 08:14:08;;;;;;;5.05;3.28;;;8.90;99.90;;;;;;4971379;28;20074;-67
2023/04/13 08:16:34;;;;;;;7.80;3.75;;;8.90;99.90;;;;;;4973861;28;20085;-67
2023/04/13 08:19:00;;;;;;;6.20;3.47;;;9.00;99.90;;;;;;4981826;28;20466;-67
2023/04/13 08:21:27;;;;;;;6.22;3.40;;;9.10;99.90;;;;;;4989407;28;20049;-67
2023/04/13 08:23:53;;;;;;;5.60;3.70;;;9.10;99.90;;;;;;4988575;28;20045;-67
2023/04/13 08:26:20;;;;;;;8.48;3.60;;;9.10;99.90;;;;;;4986170;28;20039;-67
2023/04/13 08:28:47;;;;;;;7.40;3.47;;;9.00;99.90;;;;;;4965884;28;20382;-67
2023/04/13 08:31:13;;;;;;;7.38;4.18;;;8.80;99.90;;;;;;4981524;28;20082;-67
2023/04/13 08:33:39;;;;;;;8.63;4.20;;;8.80;99.90;;;;;;4983072;28;20034;-66
2023/04/13 08:36:05;;;;;;;5.88;4.25;;;8.80;99.90;;;;;;4991900;28;20141;-67
2023/04/13 08:38:32;;;;;;;10.13;4.65;;;8.90;99.90;;;;;;4969343;28;20077;-67
2023/04/13 08:40:58;;;;;;;13.65;5.30;;;9.00;99.90;;;;;;4978934;28;20134;-68
2023/04/13 08:43:23;;;;;;;9.07;4.93;;;9.10;99.90;;;;;;4982368;28;20468;-67
2023/04/13 08:45:50;;;;;;;7.10;5.07;;;9.00;99.90;;;;;;4989960;28;20062;-68
2023/04/13 08:48:18;;;;;;;8.02;4.72;;;8.70;99.90;;;;;;4980041;28;20161;-68
2023/04/13 08:50:45;;;;;;;6.80;4.43;;;8.60;99.90;;;;;;4966520;28;20078;-68
2023/04/13 08:53:10;;;;;;;8.13;4.18;;;8.50;99.90;;;;;;4984406;28;20045;-68
2023/04/13 08:55:44;;;;;;;11.05;4.95;;;8.60;99.90;;;;;;4974319;28;20042;-67
2023/04/13 08:58:12;;;;;;;10.57;4.72;;;8.70;99.90;;;;;;4966387;28;20386;-68
2023/04/13 09:00:40;;;;;;;9.05;4.88;;;8.70;99.90;;;;;;4985011;28;20035;-68
2023/04/13 09:03:09;;;;;;;8.25;4.50;;;8.60;99.90;;;;;;4970177;28;20031;-67
2023/04/13 09:05:38;;;;;;;8.38;4.72;;;8.70;99.90;;;;;;4961211;28;20118;-68
2023/04/13 09:08:06;;;;;;;8.98;4.63;;;8.70;99.90;;;;;;4965164;28;20035;-68
2023/04/13 09:10:32;;;;;;;6.03;3.67;;;8.70;99.90;;;;;;4981093;28;20049;-67
2023/04/13 09:12:58;;;;;;;6.38;3.05;;;8.80;99.90;;;;;;4983069;28;20109;-68
2023/04/13 09:15:24;;;;;;;6.70;3.22;;;8.80;99.90;;;;;;4971803;28;20442;-67
2023/04/13 09:17:50;;;;;;;5.05;2.55;;;8.80;99.90;;;;;;4976785;28;20054;-67
2023/04/13 09:20:21;;;;;;;3.65;1.70;;;8.60;99.90;;;;;;4955295;28;20062;-67
2023/04/13 09:22:47;;;;;;;7.75;1.27;;;8.10;99.90;;;;;;4979326;28;20050;-67
2023/04/13 09:25:39;;;;;;;3.85;1.30;;;7.80;99.90;;;;;;4980845;28;21050;-67
2023/04/13 09:28:07;;;;;;;3.80;1.50;;;7.50;99.90;;;;;;4974056;28;20050;-66
2023/04/13 09:30:33;;;;;;;3.80;1.63;;;7.20;99.90;;;;;;4982661;28;20042;-66
2023/04/13 09:33:03;;;;;;;5.32;1.80;;;7.00;99.90;;;;;;4991775;28;20041;-65
2023/04/13 09:35:30;;;;;;;3.55;2.10;;;7.10;99.90;;;;;;4983851;28;20041;-65
2023/04/13 09:37:55;;;;;;;5.35;2.53;;;7.50;99.90;;;;;;4978914;28;20061;-66
2023/04/13 09:40:21;;;;;;;5.68;2.38;;;7.90;99.90;;;;;;4979602;28;20537;-66
2023/04/13 09:43:01;;;;;;;8.13;2.60;;;8.40;99.90;;;;;;4977443;28;20512;-66
2023/04/13 09:45:34;;;;;;;4.13;2.30;;;8.80;99.90;;;;;;4986195;28;20038;-66
2023/04/13 09:48:01;;;;;;;4.20;2.13;;;9.10;99.90;;;;;;4983723;28;20054;-66
2023/04/13 09:50:27;;;;;;;5.20;2.20;;;9.10;99.90;;;;;;4986311;28;20046;-66
2023/04/13 09:53:06;;;;;;;5.63;2.75;;;9.20;99.90;;;;;;4991654;28;20081;-66
2023/04/13 09:55:33;;;;;;;6.88;2.55;;;9.30;99.90;;;;;;4970460;28;20038;-67
2023/04/13 09:58:16;;;;;;;3.95;1.92;;;9.30;99.90;;;;;;4985311;28;20046;-66
2023/04/13 10:00:43;;;;;;;2.97;1.63;;;9.10;99.90;;;;;;4977074;28;20489;-66
2023/04/13 10:03:11;;;;;;;4.35;1.60;;;9.20;99.90;;;;;;4983765;28;20038;-66
2023/04/13 10:05:37;;;;;;;7.55;1.80;;;9.40;99.90;;;;;;4965209;28;20452;-66
2023/04/13 10:08:04;;;;;;;4.45;1.80;;;9.60;99.90;;;;;;5029242;23;20071;-66
2023/04/13 10:10:30;;;;;;;3.35;1.73;;;9.70;99.90;;;;;;4953533;28;20676;-66
2023/04/13 10:13:00;;;;;;;5.53;2.22;;;9.80;99.90;;;;;;4970825;28;20038;-66
2023/04/13 10:15:47;;;;;;;4.40;1.92;;;10.00;99.90;;;;;;4969309;28;20043;-66
2023/04/13 10:18:32;;;;;;;6.55;2.15;;;10.50;99.90;;;;;;4969939;28;20049;-66
2023/04/13 10:20:59;;;;;;;6.28;1.98;;;10.70;99.90;;;;;;4945909;28;20079;-67
2023/04/13 10:23:28;;;;;;;7.82;2.60;;;10.60;99.90;;;;;;4937212;29;20043;-67
2023/04/13 10:25:56;;;;;;;7.30;2.25;;;10.60;99.90;;;;;;4952177;29;20397;-66
2023/04/13 10:28:23;;;;;;;5.75;2.30;;;10.40;99.90;;;;;;4918239;29;20402;-66
2023/04/13 10:30:53;;;;;;;6.13;2.30;;;10.20;99.90;;;;;;4950744;28;20081;-67
2023/04/13 10:33:19;;;;;;;4.93;2.03;;;10.20;99.90;;;;;;4945111;28;20048;-67
2023/04/13 10:35:58;;;;;;;8.10;2.60;;;10.00;99.90;;;;;;4935208;28;20075;-67
2023/04/13 10:38:26;;;;;;;6.90;2.22;;;10.00;99.90;;;;;;4919390;29;20513;-67
2023/04/13 10:40:52;;;;;;;8.68;2.50;;;10.10;99.90;;;;;;4945421;29;20036;-66
2023/04/13 10:43:31;;;;;;;6.43;2.25;;;10.30;99.90;;;;;;4923560;28;20035;-66
2023/04/13 10:46:12;;;;;;;7.90;2.30;;;10.60;99.90;;;;;;4940389;28;20055;-66
2023/04/13 10:48:40;;;;;;;6.53;2.13;;;10.70;99.90;;;;;;4943127;28;20041;-67
2023/04/13 10:51:05;;;;;;;7.82;2.47;;;10.90;99.90;;;;;;4933945;28;20067;-67
2023/04/13 10:53:33;;;;;;;6.85;2.25;;;11.00;99.90;;;;;;4949521;28;20192;-67
2023/04/13 10:56:00;;;;;;;8.18;2.17;;;11.10;99.90;;;;;;4937080;29;20402;-67
2023/04/13 10:58:27;;;;;;;11.18;2.70;;;11.10;99.90;;;;;;4932175;29;20130;-66
2023/04/13 11:00:56;;;;;;;8.93;2.33;;;10.90;99.90;;;;;;4946105;28;20045;-66
2023/04/13 11:03:26;;;;;;;10.38;2.75;;;10.80;99.90;;;;;;4945270;28;20059;-66
2023/04/13 11:05:57;;;;;;;12.25;2.30;;;10.90;99.90;;;;;;4938434;28;20122;-66
2023/04/13 11:08:23;;;;;;;7.27;2.83;;;11.00;99.90;;;;;;4922379;29;20091;-66
2023/04/13 11:10:53;;;;;;;8.70;2.17;;;11.20;99.90;;;;;;4926812;28;20406;-67
2023/04/13 11:13:19;;;;;;;7.80;2.67;;;11.30;99.90;;;;;;4944064;28;20043;-66
2023/04/13 11:15:46;;;;;;;7.95;2.33;;;11.40;99.90;;;;;;4946838;29;20122;-66
2023/04/13 11:18:12;;;;;;;10.60;2.47;;;11.40;99.90;;;;;;4915057;29;20673;-66
2023/04/13 11:20:39;;;;;;;5.90;2.10;;;11.40;99.90;;;;;;4943073;28;20046;-66
2023/04/13 11:23:12;;;;;;;8.38;2.50;;;11.40;99.90;;;;;;4944772;28;20039;-66
2023/04/13 11:25:37;;;;;;;9.65;2.53;;;11.50;99.90;;;;;;4924439;29;20059;-66
2023/04/13 11:28:04;;;;;;;6.43;1.90;;;11.60;99.90;;;;;;4948534;28;20117;-66
2023/04/13 11:30:31;;;;;;;10.38;2.60;;;11.40;99.90;;;;;;4947031;28;20065;-66
2023/04/13 11:32:58;;;;;;;7.45;2.45;;;11.10;99.90;;;;;;4941920;28;20405;-66
2023/04/13 11:35:25;;;;;;;9.15;2.40;;;10.90;99.90;;;;;;4941921;28;20042;-67
2023/04/13 11:37:53;;;;;;;8.15;2.25;;;11.00;99.90;;;;;;4952805;28;20042;-66
2023/04/13 11:40:24;;;;;;;13.10;2.50;;;11.10;99.90;;;;;;4943339;29;20039;-66
2023/04/13 11:42:55;;;;;;;10.40;2.28;;;11.20;99.90;;;;;;4943885;28;20110;-66
2023/04/13 11:45:24;;;;;;;8.30;2.35;;;11.20;99.90;;;;;;4934641;28;20036;-66
2023/04/13 11:47:50;;;;;;;15.10;2.60;;;11.30;99.90;;;;;;4939737;28;20094;-66
2023/04/13 11:50:17;;;;;;;11.35;2.85;;;11.30;99.90;;;;;;4940551;28;20197;-66
2023/04/13 11:52:45;;;;;;;7.78;3.05;;;11.50;99.90;;;;;;4944909;28;20047;-66
2023/04/13 11:55:11;;;;;;;12.73;2.58;;;11.70;99.90;;;;;;4949761;28;20105;-66
2023/04/13 11:57:39;;;;;;;13.15;2.95;;;11.60;99.90;;;;;;4951426;28;20050;-66
2023/04/13 12:00:14;;;;;;;9.50;2.38;;;11.60;99.90;;;;;;4940329;28;20051;-66
2023/04/13 12:02:41;;;;;;;11.20;2.47;;;11.40;99.90;;;;;;4940063;28;20119;-66
2023/04/13 12:05:08;;;;;;;11.02;2.42;;;11.30;99.90;;;;;;4944038;28;20525;-66
2023/04/13 12:07:41;;;;;;;9.07;2.00;;;11.30;99.90;;;;;;4941665;28;20043;-66
2023/04/13 12:10:08;;;;;;;11.70;2.92;;;11.20;99.90;;;;;;4943985;28;20405;-66
2023/04/13 12:12:35;;;;;;;9.43;2.30;;;11.00;99.90;;;;;;4945516;28;20119;-66
2023/04/13 12:15:01;;;;;;;11.52;2.90;;;10.90;99.90;;;;;;4942065;28;20039;-66
2023/04/13 12:17:30;;;;;;;7.47;1.95;;;10.90;99.90;;;;;;4942663;28;20054;-67
2023/04/13 12:19:57;;;;;;;7.43;2.60;;;11.00;99.90;;;;;;4932233;29;20524;-67
2023/04/13 12:22:23;;;;;;;9.43;2.35;;;11.20;99.90;;;;;;4951731;29;20043;-66
2023/04/13 12:24:49;;;;;;;7.03;2.10;;;11.30;99.90;;;;;;4935508;28;20039;-66
2023/04/13 12:27:16;;;;;;;11.40;2.53;;;11.30;99.90;;;;;;4926129;29;20550;-66
2023/04/13 12:29:41;;;;;;;11.60;2.42;;;11.40;99.90;;;;;;4932070;28;20043;-67
2023/04/13 12:32:13;;;;;;;8.77;2.42;;;11.20;99.90;;;;;;4942863;28;20093;-67
2023/04/13 12:34:40;;;;;;;12.70;2.90;;;11.20;99.90;;;;;;4946165;28;20039;-67
2023/04/13 12:37:06;;;;;;;11.95;2.25;;;11.20;99.90;;;;;;4941957;29;20063;-67
2023/04/13 12:39:32;;;;;;;11.68;2.17;;;11.40;99.90;;;;;;4937326;28;20068;-66
2023/04/13 12:41:57;;;;;;;12.15;2.50;;;11.60;99.90;;;;;;4939135;28;20068;-66
2023/04/13 12:44:23;;;;;;;11.05;2.17;;;11.80;99.90;;;;;;4950938;28;20050;-67
2023/04/13 12:46:48;;;;;;;8.07;2.28;;;11.80;99.90;;;;;;4940634;28;20183;-67
2023/04/13 12:49:14;;;;;;;8.05;2.17;;;11.70;99.90;;;;;;4940345;28;20038;-66
2023/04/13 12:51:40;;;;;;;6.65;2.13;;;11.70;99.90;;;;;;4950339;28;20043;-66
2023/04/13 12:54:11;;;;;;;8.02;2.22;;;11.60;99.90;;;;;;4951322;29;20049;-66
2023/04/13 12:56:38;;;;;;;10.13;2.35;;;11.40;99.90;;;;;;4926132;29;20062;-66